sensor_id;sensor_type;location;lat;lon;timestamp;temperature;humidity
418;DHT22;49;48.530;9.200;2023-01-23T00:00:58;4.70;76.20
418;DHT22;49;48.530;9.200;2023-01-23T00:03:26;4.60;75.10
418;DHT22;49;48.530;9.200;2023-01-23T00:05:56;4.10;77.30
418;DHT22;49;48.530;9.200;2023-01-23T00:08:24;4.10;78.40
418;DHT22;49;48.530;9.200;2023-01-23T00:10:50;4.30;79.00
418;DHT22;49;48.530;9.200;2023-01-23T00:13:17;4.50;78.60
418;DHT22;49;48.530;9.200;2023-01-23T00:15:45;4.40;75.00
418;DHT22;49;48.530;9.200;2023-01-23T00:18:12;4.30;79.00
418;DHT22;49;48.530;9.200;2023-01-23T00:20:41;4.40;76.40
418;DHT22;49;48.530;9.200;2023-01-23T00:23:08;4.10;78.30
418;DHT22;49;48.530;9.200;2023-01-23T00:25:35;4.20;78.20
418;DHT22;49;48.530;9.200;2023-01-23T00:28:03;4.00;81.00
418;DHT22;49;48.530;9.200;2023-01-23T00:30:30;4.10;79.40
418;DHT22;49;48.530;9.200;2023-01-23T00:32:57;4.00;79.60
418;DHT22;49;48.530;9.200;2023-01-23T00:35:24;3.90;80.60
418;DHT22;49;48.530;9.200;2023-01-23T00:37:52;3.80;80.80
418;DHT22;49;48.530;9.200;2023-01-23T00:40:19;3.60;84.10
418;DHT22;49;48.530;9.200;2023-01-23T00:42:46;3.90;81.30
418;DHT22;49;48.530;9.200;2023-01-23T00:45:13;3.80;82.30
418;DHT22;49;48.530;9.200;2023-01-23T00:47:40;3.80;82.30
418;DHT22;49;48.530;9.200;2023-01-23T00:50:09;3.50;83.60
418;DHT22;49;48.530;9.200;2023-01-23T00:52:36;4.00;81.60
418;DHT22;49;48.530;9.200;2023-01-23T00:55:06;4.20;79.80
418;DHT22;49;48.530;9.200;2023-01-23T00:57:33;4.30;79.00
418;DHT22;49;48.530;9.200;2023-01-23T01:00:00;3.90;79.40
418;DHT22;49;48.530;9.200;2023-01-23T01:02:26;3.10;85.40
418;DHT22;49;48.530;9.200;2023-01-23T01:04:53;3.00;88.70
418;DHT22;49;48.530;9.200;2023-01-23T01:07:20;3.10;88.70
418;DHT22;49;48.530;9.200;2023-01-23T01:09:47;2.90;90.40
418;DHT22;49;48.530;9.200;2023-01-23T01:12:16;2.50;91.50
418;DHT22;49;48.530;9.200;2023-01-23T01:14:43;2.70;92.00
418;DHT22;49;48.530;9.200;2023-01-23T01:17:10;3.00;91.20
418;DHT22;49;48.530;9.200;2023-01-23T01:19:37;2.70;91.60
418;DHT22;49;48.530;9.200;2023-01-23T01:22:04;3.10;91.30
418;DHT22;49;48.530;9.200;2023-01-23T01:24:31;3.00;90.90
418;DHT22;49;48.530;9.200;2023-01-23T01:26:58;3.00;90.50
418;DHT22;49;48.530;9.200;2023-01-23T01:29:26;2.90;91.60
418;DHT22;49;48.530;9.200;2023-01-23T01:31:53;3.00;91.70
418;DHT22;49;48.530;9.200;2023-01-23T01:34:20;3.60;90.00
418;DHT22;49;48.530;9.200;2023-01-23T01:36:47;4.30;86.30
418;DHT22;49;48.530;9.200;2023-01-23T01:39:14;4.40;80.90
418;DHT22;49;48.530;9.200;2023-01-23T01:41:40;4.20;81.70
418;DHT22;49;48.530;9.200;2023-01-23T01:44:10;3.80;84.90
418;DHT22;49;48.530;9.200;2023-01-23T01:46:40;4.10;89.00
418;DHT22;49;48.530;9.200;2023-01-23T01:49:11;4.20;83.10
418;DHT22;49;48.530;9.200;2023-01-23T01:51:41;3.90;85.00
418;DHT22;49;48.530;9.200;2023-01-23T01:54:16;4.10;82.50
418;DHT22;49;48.530;9.200;2023-01-23T01:56:48;3.90;84.70
418;DHT22;49;48.530;9.200;2023-01-23T01:59:17;3.90;85.00
418;DHT22;49;48.530;9.200;2023-01-23T02:01:50;4.50;83.40
418;DHT22;49;48.530;9.200;2023-01-23T02:04:19;5.00;77.60
418;DHT22;49;48.530;9.200;2023-01-23T02:06:46;5.20;75.50
418;DHT22;49;48.530;9.200;2023-01-23T02:09:19;5.10;74.00
418;DHT22;49;48.530;9.200;2023-01-23T02:11:48;4.90;76.60
418;DHT22;49;48.530;9.200;2023-01-23T02:14:15;4.40;79.10
418;DHT22;49;48.530;9.200;2023-01-23T02:16:43;3.80;81.40
418;DHT22;49;48.530;9.200;2023-01-23T02:19:26;3.70;84.90
418;DHT22;49;48.530;9.200;2023-01-23T02:22:01;3.80;85.70
418;DHT22;49;48.530;9.200;2023-01-23T02:24:34;3.60;85.50
418;DHT22;49;48.530;9.200;2023-01-23T02:27:03;3.60;84.80
418;DHT22;49;48.530;9.200;2023-01-23T02:29:40;3.60;85.40
418;DHT22;49;48.530;9.200;2023-01-23T02:32:07;3.50;86.90
418;DHT22;49;48.530;9.200;2023-01-23T02:34:34;3.60;86.70
418;DHT22;49;48.530;9.200;2023-01-23T02:37:02;4.00;85.10
418;DHT22;49;48.530;9.200;2023-01-23T02:39:30;4.00;82.70
418;DHT22;49;48.530;9.200;2023-01-23T02:41:58;3.80;84.90
418;DHT22;49;48.530;9.200;2023-01-23T02:44:29;3.80;83.80
418;DHT22;49;48.530;9.200;2023-01-23T02:46:58;4.10;82.70
418;DHT22;49;48.530;9.200;2023-01-23T02:49:26;4.40;82.10
418;DHT22;49;48.530;9.200;2023-01-23T02:51:53;5.00;78.50
418;DHT22;49;48.530;9.200;2023-01-23T02:54:21;4.80;78.30
418;DHT22;49;48.530;9.200;2023-01-23T02:56:48;4.50;77.20
418;DHT22;49;48.530;9.200;2023-01-23T02:59:15;4.00;82.10
418;DHT22;49;48.530;9.200;2023-01-23T03:02:01;3.90;81.10
418;DHT22;49;48.530;9.200;2023-01-23T03:04:28;3.80;82.60
418;DHT22;49;48.530;9.200;2023-01-23T03:06:55;3.80;83.50
418;DHT22;49;48.530;9.200;2023-01-23T03:09:24;3.80;83.70
418;DHT22;49;48.530;9.200;2023-01-23T03:11:51;3.70;83.40
418;DHT22;49;48.530;9.200;2023-01-23T03:14:21;3.60;84.80
418;DHT22;49;48.530;9.200;2023-01-23T03:16:48;3.50;84.70
418;DHT22;49;48.530;9.200;2023-01-23T03:19:19;3.60;85.40
418;DHT22;49;48.530;9.200;2023-01-23T03:21:48;3.70;84.80
418;DHT22;49;48.530;9.200;2023-01-23T03:24:15;4.00;83.50
418;DHT22;49;48.530;9.200;2023-01-23T03:26:45;3.80;81.20
418;DHT22;49;48.530;9.200;2023-01-23T03:29:13;3.80;83.80
418;DHT22;49;48.530;9.200;2023-01-23T03:31:58;4.10;80.70
418;DHT22;49;48.530;9.200;2023-01-23T03:34:27;4.30;80.00
418;DHT22;49;48.530;9.200;2023-01-23T03:36:54;4.30;79.50
418;DHT22;49;48.530;9.200;2023-01-23T03:39:21;4.60;78.70
418;DHT22;49;48.530;9.200;2023-01-23T03:42:05;4.60;78.10
418;DHT22;49;48.530;9.200;2023-01-23T03:44:32;4.70;77.60
418;DHT22;49;48.530;9.200;2023-01-23T03:46:59;4.70;76.90
418;DHT22;49;48.530;9.200;2023-01-23T03:49:27;4.50;77.10
418;DHT22;49;48.530;9.200;2023-01-23T03:51:54;4.40;78.40
418;DHT22;49;48.530;9.200;2023-01-23T03:54:21;4.50;77.70
418;DHT22;49;48.530;9.200;2023-01-23T03:56:48;4.80;76.50
418;DHT22;49;48.530;9.200;2023-01-23T03:59:15;4.90;76.70
418;DHT22;49;48.530;9.200;2023-01-23T04:01:42;4.90;74.60
418;DHT22;49;48.530;9.200;2023-01-23T04:04:08;4.60;75.50
418;DHT22;49;48.530;9.200;2023-01-23T04:06:37;4.10;78.70
418;DHT22;49;48.530;9.200;2023-01-23T04:09:04;4.00;79.50
418;DHT22;49;48.530;9.200;2023-01-23T04:11:31;4.20;80.90
418;DHT22;49;48.530;9.200;2023-01-23T04:13:57;4.70;77.90
418;DHT22;49;48.530;9.200;2023-01-23T04:16:24;5.30;76.40
418;DHT22;49;48.530;9.200;2023-01-23T04:18:53;5.10;71.00
418;DHT22;49;48.530;9.200;2023-01-23T04:21:20;5.00;72.80
418;DHT22;49;48.530;9.200;2023-01-23T04:23:49;4.80;73.30
418;DHT22;49;48.530;9.200;2023-01-23T04:26:16;5.10;77.50
418;DHT22;49;48.530;9.200;2023-01-23T04:28:42;5.40;69.60
418;DHT22;49;48.530;9.200;2023-01-23T04:31:09;5.10;69.80
418;DHT22;49;48.530;9.200;2023-01-23T04:33:36;4.50;72.80
418;DHT22;49;48.530;9.200;2023-01-23T04:36:05;4.00;76.40
418;DHT22;49;48.530;9.200;2023-01-23T04:38:32;3.70;80.50
418;DHT22;49;48.530;9.200;2023-01-23T04:41:01;3.50;80.60
418;DHT22;49;48.530;9.200;2023-01-23T04:43:28;3.70;82.80
418;DHT22;49;48.530;9.200;2023-01-23T04:45:56;4.40;79.10
418;DHT22;49;48.530;9.200;2023-01-23T04:48:23;4.40;76.20
418;DHT22;49;48.530;9.200;2023-01-23T04:50:50;4.30;78.40
418;DHT22;49;48.530;9.200;2023-01-23T04:53:18;4.70;75.20
418;DHT22;49;48.530;9.200;2023-01-23T04:55:46;4.80;73.10
418;DHT22;49;48.530;9.200;2023-01-23T04:58:16;3.80;77.40
418;DHT22;49;48.530;9.200;2023-01-23T05:00:43;3.80;80.20
418;DHT22;49;48.530;9.200;2023-01-23T05:03:10;4.00;80.60
418;DHT22;49;48.530;9.200;2023-01-23T05:05:37;4.30;78.90
418;DHT22;49;48.530;9.200;2023-01-23T05:08:04;4.20;77.10
418;DHT22;49;48.530;9.200;2023-01-23T05:10:31;4.60;77.10
418;DHT22;49;48.530;9.200;2023-01-23T05:12:58;4.60;75.40
418;DHT22;49;48.530;9.200;2023-01-23T05:15:27;4.70;74.50
418;DHT22;49;48.530;9.200;2023-01-23T05:17:54;4.30;75.00
418;DHT22;49;48.530;9.200;2023-01-23T05:20:20;4.60;75.30
418;DHT22;49;48.530;9.200;2023-01-23T05:22:48;4.60;73.90
418;DHT22;49;48.530;9.200;2023-01-23T05:25:19;4.50;75.60
418;DHT22;49;48.530;9.200;2023-01-23T05:27:46;4.60;73.70
418;DHT22;49;48.530;9.200;2023-01-23T05:30:14;5.00;72.60
418;DHT22;49;48.530;9.200;2023-01-23T05:32:44;5.10;70.80
418;DHT22;49;48.530;9.200;2023-01-23T05:35:16;4.60;71.60
418;DHT22;49;48.530;9.200;2023-01-23T05:37:47;4.40;74.10
418;DHT22;49;48.530;9.200;2023-01-23T05:40:14;4.50;75.00
418;DHT22;49;48.530;9.200;2023-01-23T05:42:41;4.70;74.40
418;DHT22;49;48.530;9.200;2023-01-23T05:45:08;5.00;72.30
418;DHT22;49;48.530;9.200;2023-01-23T05:47:37;4.90;72.50
418;DHT22;49;48.530;9.200;2023-01-23T05:50:07;4.30;73.60
418;DHT22;49;48.530;9.200;2023-01-23T05:52:34;4.80;73.50
418;DHT22;49;48.530;9.200;2023-01-23T05:55:01;4.60;72.20
418;DHT22;49;48.530;9.200;2023-01-23T05:57:28;4.30;76.10
418;DHT22;49;48.530;9.200;2023-01-23T05:59:55;3.80;79.10
418;DHT22;49;48.530;9.200;2023-01-23T06:02:22;3.70;81.60
418;DHT22;49;48.530;9.200;2023-01-23T06:04:49;3.70;83.80
418;DHT22;49;48.530;9.200;2023-01-23T06:07:18;3.60;82.90
418;DHT22;49;48.530;9.200;2023-01-23T06:09:46;3.90;82.40
418;DHT22;49;48.530;9.200;2023-01-23T06:12:13;4.40;79.50
418;DHT22;49;48.530;9.200;2023-01-23T06:14:40;4.60;75.10
418;DHT22;49;48.530;9.200;2023-01-23T06:17:07;4.30;76.10
418;DHT22;49;48.530;9.200;2023-01-23T06:19:34;4.60;76.00
418;DHT22;49;48.530;9.200;2023-01-23T06:22:00;5.20;73.30
418;DHT22;49;48.530;9.200;2023-01-23T06:24:29;5.40;68.60
418;DHT22;49;48.530;9.200;2023-01-23T06:26:56;5.70;66.70
418;DHT22;49;48.530;9.200;2023-01-23T06:29:23;5.70;64.70
418;DHT22;49;48.530;9.200;2023-01-23T06:31:50;5.70;65.20
418;DHT22;49;48.530;9.200;2023-01-23T06:34:17;5.20;66.70
418;DHT22;49;48.530;9.200;2023-01-23T06:36:44;4.80;71.30
418;DHT22;49;48.530;9.200;2023-01-23T06:39:16;4.70;72.90
418;DHT22;49;48.530;9.200;2023-01-23T06:41:44;5.10;70.80
418;DHT22;49;48.530;9.200;2023-01-23T06:44:11;5.40;68.60
418;DHT22;49;48.530;9.200;2023-01-23T06:46:38;5.60;68.30
418;DHT22;49;48.530;9.200;2023-01-23T06:49:05;5.80;66.90
418;DHT22;49;48.530;9.200;2023-01-23T06:51:33;5.90;65.70
418;DHT22;49;48.530;9.200;2023-01-23T06:54:08;5.40;65.00
418;DHT22;49;48.530;9.200;2023-01-23T06:56:35;4.90;69.20
418;DHT22;49;48.530;9.200;2023-01-23T06:59:04;4.50;71.60
418;DHT22;49;48.530;9.200;2023-01-23T07:01:31;4.00;75.30
418;DHT22;49;48.530;9.200;2023-01-23T07:03:58;3.70;79.60
418;DHT22;49;48.530;9.200;2023-01-23T07:06:25;4.10;80.20
418;DHT22;49;48.530;9.200;2023-01-23T07:08:52;3.60;82.40
418;DHT22;49;48.530;9.200;2023-01-23T07:11:19;3.60;83.00
418;DHT22;49;48.530;9.200;2023-01-23T07:13:46;3.20;85.60
418;DHT22;49;48.530;9.200;2023-01-23T07:16:14;3.30;87.60
418;DHT22;49;48.530;9.200;2023-01-23T07:18:41;3.10;87.90
418;DHT22;49;48.530;9.200;2023-01-23T07:21:08;3.10;88.00
418;DHT22;49;48.530;9.200;2023-01-23T07:23:35;2.90;90.10
418;DHT22;49;48.530;9.200;2023-01-23T07:26:04;3.00;89.10
418;DHT22;49;48.530;9.200;2023-01-23T07:28:34;2.80;89.90
418;DHT22;49;48.530;9.200;2023-01-23T07:31:01;2.50;91.30
418;DHT22;49;48.530;9.200;2023-01-23T07:33:30;2.50;91.80
418;DHT22;49;48.530;9.200;2023-01-23T07:35:57;2.70;91.60
418;DHT22;49;48.530;9.200;2023-01-23T07:38:24;3.10;90.30
418;DHT22;49;48.530;9.200;2023-01-23T07:40:56;3.10;89.00
418;DHT22;49;48.530;9.200;2023-01-23T07:43:23;3.00;90.00
418;DHT22;49;48.530;9.200;2023-01-23T07:45:50;2.50;90.70
418;DHT22;49;48.530;9.200;2023-01-23T07:48:17;2.80;90.80
418;DHT22;49;48.530;9.200;2023-01-23T07:50:45;2.70;90.70
418;DHT22;49;48.530;9.200;2023-01-23T07:53:12;2.60;91.50
418;DHT22;49;48.530;9.200;2023-01-23T07:55:39;2.60;91.10
418;DHT22;49;48.530;9.200;2023-01-23T07:58:06;2.40;91.70
418;DHT22;49;48.530;9.200;2023-01-23T08:00:33;2.90;91.90
418;DHT22;49;48.530;9.200;2023-01-23T08:03:00;2.70;91.20
418;DHT22;49;48.530;9.200;2023-01-23T08:05:27;2.90;90.60
418;DHT22;49;48.530;9.200;2023-01-23T08:07:55;3.20;90.60
418;DHT22;49;48.530;9.200;2023-01-23T08:10:22;3.40;89.60
418;DHT22;49;48.530;9.200;2023-01-23T08:12:49;3.00;89.80
418;DHT22;49;48.530;9.200;2023-01-23T08:15:16;3.10;88.20
418;DHT22;49;48.530;9.200;2023-01-23T08:17:43;3.10;90.10
418;DHT22;49;48.530;9.200;2023-01-23T08:20:11;2.90;89.50
418;DHT22;49;48.530;9.200;2023-01-23T08:22:38;3.10;90.20
418;DHT22;49;48.530;9.200;2023-01-23T08:25:08;3.00;89.60
418;DHT22;49;48.530;9.200;2023-01-23T08:27:36;3.30;86.90
418;DHT22;49;48.530;9.200;2023-01-23T08:30:03;3.30;86.20
418;DHT22;49;48.530;9.200;2023-01-23T08:32:32;3.10;89.00
418;DHT22;49;48.530;9.200;2023-01-23T08:35:00;3.40;88.90
418;DHT22;49;48.530;9.200;2023-01-23T08:37:27;3.40;86.30
418;DHT22;49;48.530;9.200;2023-01-23T08:39:54;3.60;85.40
418;DHT22;49;48.530;9.200;2023-01-23T08:42:23;3.00;88.00
418;DHT22;49;48.530;9.200;2023-01-23T08:44:50;3.10;87.60
418;DHT22;49;48.530;9.200;2023-01-23T08:47:17;3.00;88.40
418;DHT22;49;48.530;9.200;2023-01-23T08:49:44;2.80;90.10
418;DHT22;49;48.530;9.200;2023-01-23T08:52:11;3.00;91.30
418;DHT22;49;48.530;9.200;2023-01-23T08:54:44;3.10;89.30
418;DHT22;49;48.530;9.200;2023-01-23T08:57:11;2.90;89.80
418;DHT22;49;48.530;9.200;2023-01-23T08:59:40;3.00;90.10
418;DHT22;49;48.530;9.200;2023-01-23T09:02:10;3.00;90.20
418;DHT22;49;48.530;9.200;2023-01-23T09:04:38;3.30;88.70
418;DHT22;49;48.530;9.200;2023-01-23T09:07:05;2.90;89.30
418;DHT22;49;48.530;9.200;2023-01-23T09:09:32;2.80;90.90
418;DHT22;49;48.530;9.200;2023-01-23T09:11:59;2.90;90.50
418;DHT22;49;48.530;9.200;2023-01-23T09:14:26;3.10;90.20
418;DHT22;49;48.530;9.200;2023-01-23T09:16:55;3.30;90.30
418;DHT22;49;48.530;9.200;2023-01-23T09:19:22;3.50;87.70
418;DHT22;49;48.530;9.200;2023-01-23T09:21:51;3.10;88.90
418;DHT22;49;48.530;9.200;2023-01-23T09:24:18;3.50;88.30
418;DHT22;49;48.530;9.200;2023-01-23T09:26:45;3.80;84.10
418;DHT22;49;48.530;9.200;2023-01-23T09:29:14;3.50;85.10
418;DHT22;49;48.530;9.200;2023-01-23T09:31:41;3.60;90.30
418;DHT22;49;48.530;9.200;2023-01-23T09:34:09;3.70;84.80
418;DHT22;49;48.530;9.200;2023-01-23T09:36:37;3.30;88.20
418;DHT22;49;48.530;9.200;2023-01-23T09:39:03;3.10;89.30
418;DHT22;49;48.530;9.200;2023-01-23T09:41:30;3.20;88.40
418;DHT22;49;48.530;9.200;2023-01-23T09:44:00;3.10;90.30
418;DHT22;49;48.530;9.200;2023-01-23T09:46:35;3.00;90.40
418;DHT22;49;48.530;9.200;2023-01-23T09:49:11;3.30;88.90
418;DHT22;49;48.530;9.200;2023-01-23T09:51:46;2.90;90.10
418;DHT22;49;48.530;9.200;2023-01-23T09:54:30;3.10;90.40
418;DHT22;49;48.530;9.200;2023-01-23T09:57:01;3.40;89.50
418;DHT22;49;48.530;9.200;2023-01-23T09:59:35;3.40;89.10
418;DHT22;49;48.530;9.200;2023-01-23T10:02:08;3.40;85.90
418;DHT22;49;48.530;9.200;2023-01-23T10:04:38;3.90;90.10
418;DHT22;49;48.530;9.200;2023-01-23T10:07:30;3.60;82.70
418;DHT22;49;48.530;9.200;2023-01-23T10:10:12;3.80;84.90
418;DHT22;49;48.530;9.200;2023-01-23T10:12:46;3.90;83.70
418;DHT22;49;48.530;9.200;2023-01-23T10:15:26;3.70;82.10
418;DHT22;49;48.530;9.200;2023-01-23T10:18:03;3.60;84.80
418;DHT22;49;48.530;9.200;2023-01-23T10:20:55;3.30;88.10
418;DHT22;49;48.530;9.200;2023-01-23T10:23:47;3.20;85.80
418;DHT22;49;48.530;9.200;2023-01-23T10:26:19;3.40;89.90
418;DHT22;49;48.530;9.200;2023-01-23T10:28:48;3.70;83.60
418;DHT22;49;48.530;9.200;2023-01-23T10:31:28;3.60;81.40
418;DHT22;49;48.530;9.200;2023-01-23T10:34:03;3.80;82.10
418;DHT22;49;48.530;9.200;2023-01-23T10:36:36;3.30;81.90
418;DHT22;49;48.530;9.200;2023-01-23T10:39:10;3.10;83.00
418;DHT22;49;48.530;9.200;2023-01-23T10:41:41;3.20;83.80
418;DHT22;49;48.530;9.200;2023-01-23T10:44:12;2.80;83.30
418;DHT22;49;48.530;9.200;2023-01-23T10:46:46;2.90;84.10
418;DHT22;49;48.530;9.200;2023-01-23T10:49:27;3.20;81.90
418;DHT22;49;48.530;9.200;2023-01-23T10:51:56;3.80;78.60
418;DHT22;49;48.530;9.200;2023-01-23T10:54:25;4.00;74.10
418;DHT22;49;48.530;9.200;2023-01-23T10:56:55;3.40;76.60
418;DHT22;49;48.530;9.200;2023-01-23T10:59:30;3.10;80.50
418;DHT22;49;48.530;9.200;2023-01-23T11:02:01;3.40;80.30
418;DHT22;49;48.530;9.200;2023-01-23T11:04:30;3.60;77.80
418;DHT22;49;48.530;9.200;2023-01-23T11:07:04;3.90;76.50
418;DHT22;49;48.530;9.200;2023-01-23T11:09:32;4.20;72.40
418;DHT22;49;48.530;9.200;2023-01-23T11:12:15;4.00;72.30
418;DHT22;49;48.530;9.200;2023-01-23T11:14:42;3.60;80.90
418;DHT22;49;48.530;9.200;2023-01-23T11:17:15;3.60;77.00
418;DHT22;49;48.530;9.200;2023-01-23T11:19:45;3.50;76.10
418;DHT22;49;48.530;9.200;2023-01-23T11:22:28;3.10;80.40
418;DHT22;49;48.530;9.200;2023-01-23T11:24:56;3.10;80.80
418;DHT22;49;48.530;9.200;2023-01-23T11:27:25;3.10;80.40
418;DHT22;49;48.530;9.200;2023-01-23T11:30:24;3.00;81.80
418;DHT22;49;48.530;9.200;2023-01-23T11:32:56;3.00;82.80
418;DHT22;49;48.530;9.200;2023-01-23T11:35:38;3.20;80.10
418;DHT22;49;48.530;9.200;2023-01-23T11:38:15;3.30;81.80
418;DHT22;49;48.530;9.200;2023-01-23T11:40:43;3.60;79.50
418;DHT22;49;48.530;9.200;2023-01-23T11:43:13;4.00;76.60
418;DHT22;49;48.530;9.200;2023-01-23T11:45:48;3.80;77.60
418;DHT22;49;48.530;9.200;2023-01-23T11:48:30;3.60;76.90
418;DHT22;49;48.530;9.200;2023-01-23T11:51:03;3.30;80.10
418;DHT22;49;48.530;9.200;2023-01-23T11:53:42;3.00;83.50
418;DHT22;49;48.530;9.200;2023-01-23T11:56:36;3.00;84.20
418;DHT22;49;48.530;9.200;2023-01-23T11:59:51;3.40;85.70
418;DHT22;49;48.530;9.200;2023-01-23T12:02:54;3.50;81.50
418;DHT22;49;48.530;9.200;2023-01-23T12:05:47;3.40;82.70
418;DHT22;49;48.530;9.200;2023-01-23T12:08:23;4.00;80.50
418;DHT22;49;48.530;9.200;2023-01-23T12:11:02;4.20;77.60
418;DHT22;49;48.530;9.200;2023-01-23T12:13:55;3.90;78.60
418;DHT22;49;48.530;9.200;2023-01-23T12:16:35;3.80;80.40
418;DHT22;49;48.530;9.200;2023-01-23T12:19:14;3.90;78.80
418;DHT22;49;48.530;9.200;2023-01-23T12:21:49;4.20;78.50
418;DHT22;49;48.530;9.200;2023-01-23T12:24:33;4.40;77.90
418;DHT22;49;48.530;9.200;2023-01-23T12:27:13;4.60;73.80
418;DHT22;49;48.530;9.200;2023-01-23T12:30:02;4.90;73.20
418;DHT22;49;48.530;9.200;2023-01-23T12:32:43;5.20;70.40
418;DHT22;49;48.530;9.200;2023-01-23T12:35:32;5.60;68.80
418;DHT22;49;48.530;9.200;2023-01-23T12:38:22;5.40;65.90
418;DHT22;49;48.530;9.200;2023-01-23T12:40:52;5.10;69.40
418;DHT22;49;48.530;9.200;2023-01-23T12:43:32;5.10;68.90
418;DHT22;49;48.530;9.200;2023-01-23T12:46:05;4.40;72.20
418;DHT22;49;48.530;9.200;2023-01-23T12:48:38;4.40;74.90
418;DHT22;49;48.530;9.200;2023-01-23T12:51:13;4.60;72.80
418;DHT22;49;48.530;9.200;2023-01-23T12:53:44;4.40;74.90
418;DHT22;49;48.530;9.200;2023-01-23T12:56:18;4.30;78.60
418;DHT22;49;48.530;9.200;2023-01-23T12:58:54;4.30;76.90
418;DHT22;49;48.530;9.200;2023-01-23T13:01:37;4.10;75.90
418;DHT22;49;48.530;9.200;2023-01-23T13:04:14;4.20;78.30
418;DHT22;49;48.530;9.200;2023-01-23T13:06:53;4.20;77.50
418;DHT22;49;48.530;9.200;2023-01-23T13:09:30;4.00;76.70
418;DHT22;49;48.530;9.200;2023-01-23T13:12:09;3.90;79.30
418;DHT22;49;48.530;9.200;2023-01-23T13:14:45;4.00;78.20
418;DHT22;49;48.530;9.200;2023-01-23T13:17:35;4.30;78.20
418;DHT22;49;48.530;9.200;2023-01-23T13:20:19;4.80;73.00
418;DHT22;49;48.530;9.200;2023-01-23T13:23:21;4.70;73.30
418;DHT22;49;48.530;9.200;2023-01-23T13:25:49;5.00;73.10
418;DHT22;49;48.530;9.200;2023-01-23T13:28:32;5.00;72.30
418;DHT22;49;48.530;9.200;2023-01-23T13:31:02;5.00;72.30
418;DHT22;49;48.530;9.200;2023-01-23T13:33:51;4.90;73.00
418;DHT22;49;48.530;9.200;2023-01-23T13:36:27;5.40;72.00
418;DHT22;49;48.530;9.200;2023-01-23T13:39:24;5.40;69.60
418;DHT22;49;48.530;9.200;2023-01-23T13:45:24;4.50;75.20
418;DHT22;49;48.530;9.200;2023-01-23T13:51:27;5.30;71.70
418;DHT22;49;48.530;9.200;2023-01-23T13:53:54;5.80;68.90
418;DHT22;49;48.530;9.200;2023-01-23T13:56:39;5.20;69.70
418;DHT22;49;48.530;9.200;2023-01-23T13:59:13;5.10;71.90
418;DHT22;49;48.530;9.200;2023-01-23T14:01:50;5.00;70.80
418;DHT22;49;48.530;9.200;2023-01-23T14:04:33;5.00;71.70
418;DHT22;49;48.530;9.200;2023-01-23T14:07:28;5.10;71.90
418;DHT22;49;48.530;9.200;2023-01-23T14:10:20;5.00;73.10
418;DHT22;49;48.530;9.200;2023-01-23T14:12:48;5.70;70.80
418;DHT22;49;48.530;9.200;2023-01-23T14:15:20;5.80;66.90
418;DHT22;49;48.530;9.200;2023-01-23T14:18:10;5.80;67.10
418;DHT22;49;48.530;9.200;2023-01-23T14:20:39;5.40;70.50
418;DHT22;49;48.530;9.200;2023-01-23T14:23:25;5.30;70.80
418;DHT22;49;48.530;9.200;2023-01-23T14:25:53;5.10;71.40
418;DHT22;49;48.530;9.200;2023-01-23T14:28:21;5.60;72.20
418;DHT22;49;48.530;9.200;2023-01-23T14:30:56;5.80;66.10
418;DHT22;49;48.530;9.200;2023-01-23T14:33:25;5.00;71.70
418;DHT22;49;48.530;9.200;2023-01-23T14:35:53;4.90;74.50
418;DHT22;49;48.530;9.200;2023-01-23T14:38:31;4.70;76.90
418;DHT22;49;48.530;9.200;2023-01-23T14:41:03;4.50;76.70
418;DHT22;49;48.530;9.200;2023-01-23T14:43:31;4.30;80.90
418;DHT22;49;48.530;9.200;2023-01-23T14:46:02;4.00;83.10
418;DHT22;49;48.530;9.200;2023-01-23T14:48:33;4.00;83.10
418;DHT22;49;48.530;9.200;2023-01-23T14:51:12;4.10;85.00
418;DHT22;49;48.530;9.200;2023-01-23T14:53:44;4.20;85.30
418;DHT22;49;48.530;9.200;2023-01-23T14:56:15;4.00;85.80
418;DHT22;49;48.530;9.200;2023-01-23T14:58:43;4.20;83.90
418;DHT22;49;48.530;9.200;2023-01-23T15:01:12;4.20;83.90
418;DHT22;49;48.530;9.200;2023-01-23T15:03:41;3.90;85.10
418;DHT22;49;48.530;9.200;2023-01-23T15:06:14;4.10;86.00
418;DHT22;49;48.530;9.200;2023-01-23T15:08:43;4.00;85.40
418;DHT22;49;48.530;9.200;2023-01-23T15:11:10;3.80;87.60
418;DHT22;49;48.530;9.200;2023-01-23T15:13:46;3.90;87.80
418;DHT22;49;48.530;9.200;2023-01-23T15:16:18;4.10;86.80
418;DHT22;49;48.530;9.200;2023-01-23T15:18:57;3.80;87.80
418;DHT22;49;48.530;9.200;2023-01-23T15:21:29;4.00;87.50
418;DHT22;49;48.530;9.200;2023-01-23T15:24:17;3.90;88.20
418;DHT22;49;48.530;9.200;2023-01-23T15:26:56;3.70;89.90
418;DHT22;49;48.530;9.200;2023-01-23T15:29:23;3.80;88.30
418;DHT22;49;48.530;9.200;2023-01-23T15:31:52;4.00;89.50
418;DHT22;49;48.530;9.200;2023-01-23T15:34:25;3.80;88.00
418;DHT22;49;48.530;9.200;2023-01-23T15:36:56;3.90;88.90
418;DHT22;49;48.530;9.200;2023-01-23T15:39:27;3.90;88.60
418;DHT22;49;48.530;9.200;2023-01-23T15:41:57;3.90;88.90
418;DHT22;49;48.530;9.200;2023-01-23T15:44:27;3.70;90.20
418;DHT22;49;48.530;9.200;2023-01-23T15:46:57;3.60;90.50
418;DHT22;49;48.530;9.200;2023-01-23T15:49:25;3.40;91.50
418;DHT22;49;48.530;9.200;2023-01-23T15:52:00;3.60;91.40
418;DHT22;49;48.530;9.200;2023-01-23T15:54:32;3.80;91.20
418;DHT22;49;48.530;9.200;2023-01-23T15:56:59;3.90;90.30
418;DHT22;49;48.530;9.200;2023-01-23T15:59:26;4.20;88.10
418;DHT22;49;48.530;9.200;2023-01-23T16:01:54;3.80;90.50
418;DHT22;49;48.530;9.200;2023-01-23T16:04:21;3.70;90.40
418;DHT22;49;48.530;9.200;2023-01-23T16:06:48;3.60;91.50
418;DHT22;49;48.530;9.200;2023-01-23T16:09:21;3.70;91.10
418;DHT22;49;48.530;9.200;2023-01-23T16:11:50;3.90;90.50
418;DHT22;49;48.530;9.200;2023-01-23T16:14:18;3.70;91.20
418;DHT22;49;48.530;9.200;2023-01-23T16:16:45;3.40;91.40
418;DHT22;49;48.530;9.200;2023-01-23T16:19:14;3.60;92.00
418;DHT22;49;48.530;9.200;2023-01-23T16:21:42;3.70;91.10
418;DHT22;49;48.530;9.200;2023-01-23T16:24:17;3.60;91.10
418;DHT22;49;48.530;9.200;2023-01-23T16:26:45;3.30;92.20
418;DHT22;49;48.530;9.200;2023-01-23T16:29:33;3.30;92.60
418;DHT22;49;48.530;9.200;2023-01-23T16:32:00;3.60;92.90
418;DHT22;49;48.530;9.200;2023-01-23T16:34:28;3.40;92.80
418;DHT22;49;48.530;9.200;2023-01-23T16:36:57;3.40;92.30
418;DHT22;49;48.530;9.200;2023-01-23T16:39:28;3.60;92.20
418;DHT22;49;48.530;9.200;2023-01-23T16:41:55;3.40;92.50
418;DHT22;49;48.530;9.200;2023-01-23T16:44:22;3.60;92.30
418;DHT22;49;48.530;9.200;2023-01-23T16:46:51;3.50;91.90
418;DHT22;49;48.530;9.200;2023-01-23T16:49:19;3.70;92.10
418;DHT22;49;48.530;9.200;2023-01-23T16:51:48;3.60;92.20
418;DHT22;49;48.530;9.200;2023-01-23T16:54:19;3.90;91.40
418;DHT22;49;48.530;9.200;2023-01-23T16:56:49;4.00;90.90
418;DHT22;49;48.530;9.200;2023-01-23T16:59:19;3.50;92.30
418;DHT22;49;48.530;9.200;2023-01-23T17:01:49;3.70;92.10
418;DHT22;49;48.530;9.200;2023-01-23T17:04:19;3.60;92.20
418;DHT22;49;48.530;9.200;2023-01-23T17:06:48;3.60;92.30
418;DHT22;49;48.530;9.200;2023-01-23T17:09:15;3.60;92.50
418;DHT22;49;48.530;9.200;2023-01-23T17:11:45;3.70;92.10
418;DHT22;49;48.530;9.200;2023-01-23T17:14:19;3.60;91.90
418;DHT22;49;48.530;9.200;2023-01-23T17:16:49;3.80;91.80
418;DHT22;49;48.530;9.200;2023-01-23T17:19:23;3.90;92.00
418;DHT22;49;48.530;9.200;2023-01-23T17:21:53;3.40;92.50
418;DHT22;49;48.530;9.200;2023-01-23T17:24:20;3.50;93.00
418;DHT22;49;48.530;9.200;2023-01-23T17:26:49;3.90;91.70
418;DHT22;49;48.530;9.200;2023-01-23T17:29:16;3.70;92.00
418;DHT22;49;48.530;9.200;2023-01-23T17:31:44;3.70;92.00
418;DHT22;49;48.530;9.200;2023-01-23T17:34:19;4.00;91.80
418;DHT22;49;48.530;9.200;2023-01-23T17:36:47;3.90;91.20
418;DHT22;49;48.530;9.200;2023-01-23T17:39:14;3.80;91.50
418;DHT22;49;48.530;9.200;2023-01-23T17:41:41;3.80;92.40